Time;durP1;ratioP1;P1;durP2;ratioP2;P2;SDS_P1;SDS_P2;PMS_P1;PMS_P2;Temp;Humidity;BMP_temperature;BMP_pressure;BME280_temperature;BME280_humidity;BME280_pressure;Samples;Min_cycle;Max_cycle;Signal;HPM_P1;HPM_P2
2022/03/11 00:01:32;;;;;;;14.25;8.85;;;;;;;;;;5999223;23;20039;-90
2022/03/11 00:04:08;;;;;;;12.95;8.88;;;;;;;;;;6017167;22;20015;-90
2022/03/11 00:06:55;;;;;;;12.55;8.90;;;;;;;;;;6172794;23;20028;-90
2022/03/11 00:09:37;;;;;;;16.75;8.88;;;;;;;;;;6143607;23;20017;-91
2022/03/11 00:12:03;;;;;;;13.70;7.75;;;;;;;;;;6143488;23;20017;-91
2022/03/11 00:14:32;;;;;;;13.23;8.45;;;;;;;;;;6164667;23;20324;-91
2022/03/11 00:17:03;;;;;;;12.93;8.27;;;;;;;;;;6103097;23;20065;-90
2022/03/11 00:19:54;;;;;;;12.32;8.02;;;;;;;;;;6052521;23;20018;-91
2022/03/11 00:22:43;;;;;;;;;;;;;;;;;;;;;
2022/03/11 00:25:36;;;;;;;;;;;;;;;;;;;;;
2022/03/11 00:28:26;;;;;;;11.38;6.80;;;;;;;;;;6071041;23;20050;-90
2022/03/11 00:31:08;;;;;;;14.05;7.55;;;;;;;;;;6022480;23;20022;-91
2022/03/11 00:36:51;;;;;;;12.02;7.43;;;;;;;;;;6012259;23;20057;-92
2022/03/11 00:42:47;;;;;;;11.95;6.93;;;;;;;;;;5957450;23;20032;-91
2022/03/11 00:45:54;;;;;;;10.45;7.57;;;;;;;;;;5952536;24;20017;-91
2022/03/11 00:48:26;;;;;;;14.02;8.55;;;;;;;;;;5885338;24;20087;-90
2022/03/11 00:50:58;;;;;;;11.75;6.97;;;;;;;;;;5884968;24;20077;-90
2022/03/11 00:53:36;;;;;;;11.23;7.97;;;;;;;;;;5883760;24;20453;-90
2022/03/11 00:56:05;;;;;;;11.68;7.20;;;;;;;;;;5928759;24;20029;-91
2022/03/11 00:58:48;;;;;;;13.07;7.35;;;;;;;;;;5907755;24;20024;-90
2022/03/11 01:01:16;;;;;;;8.38;6.28;;;;;;;;;;5884679;24;20036;-90
2022/03/11 01:03:50;;;;;;;11.80;7.50;;;;;;;;;;5908237;24;20023;-91
2022/03/11 01:06:28;;;;;;;11.23;7.38;;;;;;;;;;5954265;24;20085;-89
2022/03/11 01:09:04;;;;;;;10.52;7.35;;;;;;;;;;5934484;24;20027;-91
2022/03/11 01:11:30;;;;;;;12.48;7.70;;;;;;;;;;5933777;24;20491;-90
2022/03/11 01:14:06;;;;;;;13.63;7.50;;;;;;;;;;5908029;24;20077;-91
2022/03/11 01:16:38;;;;;;;10.57;7.03;;;;;;;;;;5907562;24;20077;-90
2022/03/11 01:19:20;;;;;;;10.68;6.20;;;;;;;;;;6013605;23;20410;-91
2022/03/11 01:21:49;;;;;;;9.02;6.22;;;;;;;;;;6013647;23;20084;-91
2022/03/11 01:24:28;;;;;;;;;;;;;;;;;;;;;
2022/03/11 01:26:55;;;;;;;15.02;7.55;;;;;;;;;;6160247;23;20023;-91
2022/03/11 01:29:23;;;;;;;14.68;7.00;;;;;;;;;;6134090;23;20018;-91
2022/03/11 01:31:58;;;;;;;12.77;7.47;;;;;;;;;;6134701;23;20018;-91
2022/03/11 01:37:22;;;;;;;15.30;7.43;;;;;;;;;;6161213;23;20017;-91
2022/03/11 01:40:01;;;;;;;10.32;6.60;;;;;;;;;;6109969;23;20101;-92
2022/03/11 01:43:02;;;;;;;11.02;7.50;;;;;;;;;;6133444;23;20021;-91
2022/03/11 01:45:30;;;;;;;10.13;6.82;;;;;;;;;;6099451;23;20022;-91
2022/03/11 01:48:09;;;;;;;10.90;7.00;;;;;;;;;;6108725;23;20017;-90
2022/03/11 01:50:54;;;;;;;13.23;6.50;;;;;;;;;;6159608;23;20045;-91
2022/03/11 01:53:49;;;;;;;10.93;7.53;;;;;;;;;;6130822;23;20025;-91
2022/03/11 01:56:41;;;;;;;12.77;6.53;;;;;;;;;;6187314;23;20132;-90
2022/03/11 01:59:11;;;;;;;10.63;6.97;;;;;;;;;;6138931;23;20439;-91
2022/03/11 02:01:45;;;;;;;16.00;7.63;;;;;;;;;;6139052;23;20067;-90
2022/03/11 02:04:16;;;;;;;11.20;6.47;;;;;;;;;;6162269;23;20067;-90
2022/03/11 02:06:51;;;;;;;11.73;7.47;;;;;;;;;;6162438;23;20024;-90
2022/03/11 02:09:24;;;;;;;13.43;7.85;;;;;;;;;;6137840;23;20017;-91
2022/03/11 02:11:56;;;;;;;14.10;7.72;;;;;;;;;;6138818;23;20195;-91
2022/03/11 02:14:37;;;;;;;13.88;7.57;;;;;;;;;;6139257;23;20343;-90
2022/03/11 02:17:19;;;;;;;12.02;7.35;;;;;;;;;;6139513;23;20028;-91
2022/03/11 02:19:51;;;;;;;14.25;8.32;;;;;;;;;;6139530;23;20013;-91
2022/03/11 02:22:24;;;;;;;13.15;7.90;;;;;;;;;;6138812;23;20455;-90
2022/03/11 02:24:54;;;;;;;13.20;7.97;;;;;;;;;;6138597;23;20055;-90
2022/03/11 02:27:27;;;;;;;13.90;8.60;;;;;;;;;;6163229;23;20040;-92
2022/03/11 02:30:05;;;;;;;14.70;8.50;;;;;;;;;;6132664;23;20022;-90
2022/03/11 02:32:32;;;;;;;13.75;7.53;;;;;;;;;;6107314;23;20044;-91
2022/03/11 02:35:26;;;;;;;13.82;8.38;;;;;;;;;;6108954;23;20088;-91
2022/03/11 02:37:59;;;;;;;16.80;8.15;;;;;;;;;;6131799;23;20022;-90
2022/03/11 02:40:43;;;;;;;14.40;9.93;;;;;;;;;;6131063;23;20024;-91
2022/03/11 02:43:15;;;;;;;17.77;9.65;;;;;;;;;;6144335;23;20036;-91
2022/03/11 02:45:53;;;;;;;14.93;9.23;;;;;;;;;;6170294;23;20024;-90
2022/03/11 02:48:34;;;;;;;;;;;;;;;;;;;;;
2022/03/11 02:53:44;;;;;;;14.63;9.50;;;;;;;;;;6221536;23;20032;-90
2022/03/11 02:56:16;;;;;;;17.85;9.68;;;;;;;;;;6134402;23;20116;-90
2022/03/11 02:59:00;;;;;;;22.52;9.35;;;;;;;;;;6111368;23;20350;-90
2022/03/11 03:01:59;;;;;;;16.75;10.02;;;;;;;;;;6109962;23;20582;-90
2022/03/11 03:04:43;;;;;;;18.38;9.70;;;;;;;;;;6109219;23;20026;-90
2022/03/11 03:07:15;;;;;;;17.02;10.18;;;;;;;;;;6158795;23;20018;-90
2022/03/11 03:09:50;;;;;;;16.13;10.57;;;;;;;;;;6109375;23;20072;-90
2022/03/11 03:12:19;;;;;;;17.35;10.88;;;;;;;;;;6109115;23;20072;-90
2022/03/11 03:17:46;;;;;;;16.75;11.20;;;;;;;;;;6044844;23;20086;-90
2022/03/11 03:20:16;;;;;;;21.55;10.98;;;;;;;;;;6046501;23;20023;-90
2022/03/11 03:22:59;;;;;;;19.35;11.05;;;;;;;;;;6024861;23;20019;-90
2022/03/11 03:25:44;;;;;;;21.05;12.05;;;;;;;;;;6023769;23;20019;-91
2022/03/11 03:28:22;;;;;;;16.73;11.27;;;;;;;;;;6023100;23;20432;-90
2022/03/11 03:30:50;;;;;;;17.90;10.82;;;;;;;;;;6023226;23;20055;-90
2022/03/11 03:33:27;;;;;;;20.85;11.40;;;;;;;;;;6035094;23;20018;-89
2022/03/11 03:35:56;;;;;;;18.67;12.80;;;;;;;;;;6077072;23;20161;-90
2022/03/11 03:38:25;;;;;;;20.70;13.00;;;;;;;;;;6051945;23;20065;-90
2022/03/11 03:41:15;;;;;;;27.70;13.80;;;;;;;;;;6052367;23;20046;-91
2022/03/11 03:43:43;;;;;;;24.52;13.00;;;;;;;;;;5990640;23;20019;-91
2022/03/11 03:46:50;;;;;;;26.17;13.00;;;;;;;;;;6013363;23;20060;-91
2022/03/11 03:49:46;;;;;;;23.77;14.43;;;;;;;;;;5966358;23;20028;-91
2022/03/11 03:58:24;;;;;;;21.80;13.10;;;;;;;;;;6242138;22;20464;-91
2022/03/11 04:04:56;;;;;;;25.63;14.32;;;;;;;;;;6128485;23;20081;-91
2022/03/11 04:07:29;;;;;;;23.70;13.45;;;;;;;;;;6103198;23;20045;-90
2022/03/11 04:09:58;;;;;;;20.90;12.90;;;;;;;;;;6079393;23;20049;-90
2022/03/11 04:12:28;;;;;;;20.67;12.93;;;;;;;;;;6099933;23;20018;-90
2022/03/11 04:14:54;;;;;;;22.08;13.15;;;;;;;;;;6079353;23;20105;-90
2022/03/11 04:17:20;;;;;;;24.70;13.38;;;;;;;;;;6079939;23;20021;-90
2022/03/11 04:19:46;;;;;;;24.63;13.85;;;;;;;;;;6074304;23;20018;-91
2022/03/11 04:22:12;;;;;;;23.95;14.68;;;;;;;;;;6075512;23;20389;-90
2022/03/11 04:24:46;;;;;;;27.98;14.15;;;;;;;;;;6074473;23;20468;-91
2022/03/11 04:27:24;;;;;;;22.88;13.73;;;;;;;;;;6073704;23;20412;-92
2022/03/11 04:30:16;;;;;;;22.25;12.90;;;;;;;;;;6074643;23;20460;-91
2022/03/11 04:32:52;;;;;;;26.00;14.43;;;;;;;;;;6074908;23;20078;-91
2022/03/11 04:35:26;;;;;;;21.02;12.80;;;;;;;;;;6075100;23;20026;-92
2022/03/11 04:37:52;;;;;;;23.17;14.00;;;;;;;;;;6074598;23;20103;-91
2022/03/11 04:40:29;;;;;;;27.17;13.95;;;;;;;;;;6075194;23;20101;-91
2022/03/11 04:43:00;;;;;;;31.85;14.57;;;;;;;;;;6157425;23;20017;-90
2022/03/11 04:45:32;;;;;;;27.90;14.83;;;;;;;;;;6108041;23;20483;-91
2022/03/11 04:48:06;;;;;;;26.25;14.48;;;;;;;;;;6157374;23;20024;-91
2022/03/11 04:50:35;;;;;;;23.85;14.05;;;;;;;;;;6109012;23;20019;-91
2022/03/11 04:53:15;;;;;;;25.80;14.73;;;;;;;;;;6157464;23;20053;-91
2022/03/11 04:56:03;;;;;;;24.33;14.63;;;;;;;;;;6109553;23;20029;-92
2022/03/11 04:58:38;;;;;;;20.92;14.30;;;;;;;;;;6158143;23;20032;-92
2022/03/11 05:01:10;;;;;;;23.90;14.48;;;;;;;;;;6109903;23;20076;-91
2022/03/11 05:03:48;;;;;;;24.58;14.45;;;;;;;;;;6109118;23;20065;-91
2022/03/11 05:06:20;;;;;;;22.30;13.93;;;;;;;;;;6132210;23;20021;-91
2022/03/11 05:08:49;;;;;;;22.95;13.82;;;;;;;;;;6084770;23;20028;-91
2022/03/11 05:11:40;;;;;;;25.48;14.20;;;;;;;;;;6175172;23;20458;-91
2022/03/11 05:14:12;;;;;;;25.77;14.80;;;;;;;;;;6196080;23;20330;-91
2022/03/11 05:16:43;;;;;;;24.65;15.50;;;;;;;;;;6194034;23;20044;-91
2022/03/11 05:19:17;;;;;;;26.67;14.65;;;;;;;;;;6194341;23;20024;-92
2022/03/11 05:22:19;;;;;;;30.05;15.40;;;;;;;;;;6069622;23;20019;-93
2022/03/11 05:25:08;;;;;;;25.33;15.40;;;;;;;;;;6045667;23;20392;-91
2022/03/11 05:27:44;;;;;;;24.65;14.75;;;;;;;;;;6070628;23;20015;-92
2022/03/11 05:30:14;;;;;;;24.23;15.23;;;;;;;;;;6045969;23;20023;-91
2022/03/11 05:32:47;;;;;;;28.25;15.88;;;;;;;;;;6070186;23;20025;-91
2022/03/11 05:35:14;;;;;;;25.15;14.20;;;;;;;;;;6069499;23;20020;-90
2022/03/11 05:37:41;;;;;;;24.75;13.68;;;;;;;;;;6045922;23;20047;-90
2022/03/11 05:40:09;;;;;;;25.30;14.32;;;;;;;;;;6069324;23;20019;-91
2022/03/11 05:42:41;;;;;;;24.90;14.93;;;;;;;;;;6046400;23;20059;-90
2022/03/11 05:48:27;;;;;;;28.10;14.73;;;;;;;;;;6074520;23;20033;-92
2022/03/11 05:50:56;;;;;;;24.70;14.80;;;;;;;;;;6050713;23;20015;-91
2022/03/11 05:53:22;;;;;;;24.45;14.15;;;;;;;;;;6049545;23;20026;-91
2022/03/11 05:55:58;;;;;;;;;;;;;;;;;;;;;
2022/03/11 06:01:26;;;;;;;29.35;14.82;;;;;;;;;;6016325;23;20430;-91
2022/03/11 06:03:52;;;;;;;23.98;13.68;;;;;;;;;;5992919;23;20025;-91
2022/03/11 06:06:33;;;;;;;29.45;16.52;;;;;;;;;;5994994;23;20537;-91
2022/03/11 06:09:05;;;;;;;26.05;14.85;;;;;;;;;;5993614;23;20102;-92
2022/03/11 06:11:33;;;;;;;29.55;15.75;;;;;;;;;;5992419;23;20469;-91
2022/03/11 06:17:10;;;;;;;28.67;15.80;;;;;;;;;;6016522;23;20110;-91
2022/03/11 06:19:45;;;;;;;24.02;14.63;;;;;;;;;;5977492;23;20034;-91
2022/03/11 06:22:16;;;;;;;25.88;15.10;;;;;;;;;;5989184;23;20023;-91
2022/03/11 06:24:48;;;;;;;26.65;15.23;;;;;;;;;;5998804;23;20030;-91
2022/03/11 06:27:28;;;;;;;22.13;14.55;;;;;;;;;;6017428;23;20019;-91
2022/03/11 06:30:02;;;;;;;27.05;14.82;;;;;;;;;;6041195;23;20477;-91
2022/03/11 06:32:50;;;;;;;26.52;14.18;;;;;;;;;;6041913;23;20536;-92
2022/03/11 06:35:19;;;;;;;23.58;13.80;;;;;;;;;;6018250;23;20027;-92
2022/03/11 06:37:53;;;;;;;25.75;15.43;;;;;;;;;;6055742;23;20014;-91
2022/03/11 06:40:20;;;;;;;24.83;14.25;;;;;;;;;;6135872;23;20481;-92
2022/03/11 06:42:47;;;;;;;23.23;13.25;;;;;;;;;;6112358;23;20022;-92
2022/03/11 06:45:19;;;;;;;24.90;13.48;;;;;;;;;;6115274;23;20055;-87
2022/03/11 06:47:46;;;;;;;22.52;14.45;;;;;;;;;;6159338;23;20026;-89
2022/03/11 06:50:13;;;;;;;29.85;15.40;;;;;;;;;;6158789;23;20054;-88
2022/03/11 06:52:39;;;;;;;24.75;15.00;;;;;;;;;;6160672;23;20017;-91
2022/03/11 06:55:06;;;;;;;29.77;13.18;;;;;;;;;;6158749;23;20024;-87
2022/03/11 06:57:34;;;;;;;23.90;13.65;;;;;;;;;;6159558;23;20021;-88
2022/03/11 07:00:00;;;;;;;24.85;13.75;;;;;;;;;;6134639;23;20470;-88
2022/03/11 07:02:27;;;;;;;36.55;14.30;;;;;;;;;;6110630;23;20049;-88
2022/03/11 07:04:53;;;;;;;26.17;14.82;;;;;;;;;;6159267;23;20017;-88
2022/03/11 07:07:19;;;;;;;26.83;15.63;;;;;;;;;;6159544;23;20017;-87
2022/03/11 07:09:45;;;;;;;23.35;14.40;;;;;;;;;;6157922;23;20467;-90
2022/03/11 07:12:11;;;;;;;24.50;14.18;;;;;;;;;;6158980;23;20331;-89
2022/03/11 07:14:37;;;;;;;26.58;13.55;;;;;;;;;;6158999;23;20017;-89
2022/03/11 07:17:04;;;;;;;30.98;15.07;;;;;;;;;;6133898;23;20020;-88
2022/03/11 07:19:30;;;;;;;25.75;13.05;;;;;;;;;;6132791;23;20021;-89
2022/03/11 07:21:56;;;;;;;20.90;12.98;;;;;;;;;;6132943;23;20024;-88
2022/03/11 07:24:23;;;;;;;27.70;15.73;;;;;;;;;;6132410;23;20101;-89
2022/03/11 07:26:49;;;;;;;26.38;14.63;;;;;;;;;;6156848;23;20060;-89
2022/03/11 07:29:15;;;;;;;22.33;13.65;;;;;;;;;;6132394;23;20025;-89
2022/03/11 07:31:41;;;;;;;24.60;13.35;;;;;;;;;;6131556;23;20021;-87
2022/03/11 07:34:07;;;;;;;24.55;14.15;;;;;;;;;;6156645;23;20022;-89
2022/03/11 07:36:34;;;;;;;23.13;14.13;;;;;;;;;;6132618;23;20336;-87
2022/03/11 07:39:07;;;;;;;26.55;14.65;;;;;;;;;;6156510;23;20022;-89
2022/03/11 07:41:34;;;;;;;23.90;13.85;;;;;;;;;;6158154;23;20070;-88
2022/03/11 07:44:00;;;;;;;23.00;13.77;;;;;;;;;;6131655;23;20096;-87
2022/03/11 07:46:27;;;;;;;23.05;13.18;;;;;;;;;;6180845;23;20477;-88
2022/03/11 07:48:54;;;;;;;26.92;13.60;;;;;;;;;;6187729;23;20075;-87
2022/03/11 07:51:20;;;;;;;23.45;14.27;;;;;;;;;;6161231;23;20021;-90
2022/03/11 07:53:46;;;;;;;29.25;14.77;;;;;;;;;;6160921;23;20028;-88
2022/03/11 07:56:20;;;;;;;24.95;13.65;;;;;;;;;;6161225;23;20017;-88
2022/03/11 07:58:46;;;;;;;27.00;12.23;;;;;;;;;;6136784;23;20024;-89
2022/03/11 08:01:13;;;;;;;21.45;13.60;;;;;;;;;;6137168;23;20013;-87
2022/03/11 08:03:41;;;;;;;20.77;12.88;;;;;;;;;;6161157;23;20068;-88
2022/03/11 08:06:08;;;;;;;21.67;12.27;;;;;;;;;;6136581;23;20028;-87
2022/03/11 08:08:34;;;;;;;23.42;14.13;;;;;;;;;;6161156;23;20024;-89
2022/03/11 08:11:00;;;;;;;23.48;13.55;;;;;;;;;;6136590;23;20028;-89
2022/03/11 08:13:27;;;;;;;21.92;13.63;;;;;;;;;;6136702;23;20025;-89
2022/03/11 08:15:53;;;;;;;25.15;13.90;;;;;;;;;;6160688;23;20350;-87
2022/03/11 08:18:19;;;;;;;21.20;13.38;;;;;;;;;;6137658;23;20448;-87
2022/03/11 08:20:46;;;;;;;25.92;14.25;;;;;;;;;;6136626;23;20390;-89
2022/03/11 08:23:12;;;;;;;19.40;12.38;;;;;;;;;;6161015;23;20017;-87
2022/03/11 08:25:38;;;;;;;22.48;12.57;;;;;;;;;;6136385;23;20017;-88
2022/03/11 08:28:10;;;;;;;26.35;15.38;;;;;;;;;;6137279;23;20021;-90
2022/03/11 08:30:37;;;;;;;27.67;14.35;;;;;;;;;;6137076;23;20017;-89
2022/03/11 08:33:07;;;;;;;25.70;13.02;;;;;;;;;;6163581;23;20020;-92
2022/03/11 08:35:33;;;;;;;22.80;12.20;;;;;;;;;;6136334;23;20017;-89
2022/03/11 08:38:03;;;;;;;19.00;11.40;;;;;;;;;;6136581;23;20028;-90
2022/03/11 08:40:29;;;;;;;21.67;13.07;;;;;;;;;;6137073;23;20021;-90
2022/03/11 08:42:55;;;;;;;20.00;11.82;;;;;;;;;;6161786;23;20091;-87
2022/03/11 08:45:22;;;;;;;21.15;12.85;;;;;;;;;;6136017;23;20328;-89
2022/03/11 08:47:52;;;;;;;20.75;13.50;;;;;;;;;;6137676;23;20028;-90
2022/03/11 08:50:18;;;;;;;24.50;13.85;;;;;;;;;;6188103;23;20541;-90
2022/03/11 08:52:44;;;;;;;24.50;14.05;;;;;;;;;;6163564;23;20053;-91
2022/03/11 08:55:12;;;;;;;25.70;14.18;;;;;;;;;;6162932;23;20020;-91
2022/03/11 08:57:38;;;;;;;27.20;14.77;;;;;;;;;;6162451;23;20013;-90
2022/03/11 09:00:09;;;;;;;20.35;13.35;;;;;;;;;;6161701;23;20021;-90
2022/03/11 09:02:37;;;;;;;21.77;13.45;;;;;;;;;;6137471;23;20013;-85
2022/03/11 09:05:04;;;;;;;23.17;14.57;;;;;;;;;;6161887;23;20052;-90
2022/03/11 09:07:30;;;;;;;27.13;15.23;;;;;;;;;;6161244;23;20013;-91
2022/03/11 09:09:56;;;;;;;22.08;13.15;;;;;;;;;;6187708;23;20021;-89
2022/03/11 09:12:22;;;;;;;23.48;12.30;;;;;;;;;;6188286;23;20021;-90
2022/03/11 09:14:48;;;;;;;23.35;14.15;;;;;;;;;;6161306;23;20347;-90
2022/03/11 09:17:14;;;;;;;21.67;13.65;;;;;;;;;;6161231;23;20355;-90
2022/03/11 09:19:42;;;;;;;19.30;12.63;;;;;;;;;;6136310;23;20013;-90
2022/03/11 09:22:08;;;;;;;21.92;13.35;;;;;;;;;;6161414;23;20108;-90
2022/03/11 09:24:35;;;;;;;25.85;14.43;;;;;;;;;;6137228;23;20052;-87
2022/03/11 09:27:01;;;;;;;21.23;13.57;;;;;;;;;;6188038;23;20017;-89
2022/03/11 09:29:30;;;;;;;23.58;12.88;;;;;;;;;;6136888;23;20103;-88
2022/03/11 09:31:57;;;;;;;23.02;12.02;;;;;;;;;;6138307;23;20048;-88
2022/03/11 09:34:24;;;;;;;23.33;12.93;;;;;;;;;;6162436;23;20021;-90
2022/03/11 09:36:52;;;;;;;20.55;12.35;;;;;;;;;;6188829;23;20435;-89
2022/03/11 09:39:18;;;;;;;20.85;13.05;;;;;;;;;;6137327;23;20451;-90
2022/03/11 09:41:46;;;;;;;22.83;13.57;;;;;;;;;;6162438;23;20024;-88
2022/03/11 09:44:15;;;;;;;20.35;12.43;;;;;;;;;;6161505;23;20455;-89
2022/03/11 09:46:42;;;;;;;26.85;14.32;;;;;;;;;;6161089;23;20083;-89
2022/03/11 09:49:09;;;;;;;19.63;13.85;;;;;;;;;;6138243;23;20052;-89
2022/03/11 09:51:35;;;;;;;20.38;11.77;;;;;;;;;;6137421;23;20052;-90
2022/03/11 09:54:02;;;;;;;25.70;14.35;;;;;;;;;;6163394;23;20108;-87
2022/03/11 09:56:29;;;;;;;22.55;13.48;;;;;;;;;;6164193;23;20502;-86
2022/03/11 09:58:55;;;;;;;22.33;14.20;;;;;;;;;;6163663;23;20021;-89
2022/03/11 10:01:22;;;;;;;21.48;13.57;;;;;;;;;;6190012;23;20021;-88
2022/03/11 10:03:48;;;;;;;24.42;12.40;;;;;;;;;;6139247;23;20322;-86
2022/03/11 10:06:14;;;;;;;20.27;12.38;;;;;;;;;;6164078;23;20027;-86
2022/03/11 10:08:44;;;;;;;21.40;13.55;;;;;;;;;;6190719;23;20042;-87
2022/03/11 10:11:19;;;;;;;25.40;12.63;;;;;;;;;;6189272;23;20509;-89
2022/03/11 10:13:45;;;;;;;19.58;12.18;;;;;;;;;;6163923;23;20021;-87
2022/03/11 10:16:20;;;;;;;23.13;14.00;;;;;;;;;;6164234;23;20013;-87
2022/03/11 10:18:53;;;;;;;26.48;14.48;;;;;;;;;;6164000;23;20025;-89
2022/03/11 10:21:19;;;;;;;21.88;13.40;;;;;;;;;;6190241;23;20017;-89
2022/03/11 10:23:49;;;;;;;20.77;14.10;;;;;;;;;;6164078;23;20021;-89
2022/03/11 10:26:30;;;;;;;29.27;12.95;;;;;;;;;;6164469;23;20028;-89
2022/03/11 10:29:00;;;;;;;23.08;13.95;;;;;;;;;;6164314;23;20028;-87
2022/03/11 10:31:30;;;;;;;23.98;13.55;;;;;;;;;;6190408;23;20025;-88
2022/03/11 10:34:14;;;;;;;27.10;15.15;;;8.10;99.90;;;;;;6190353;23;20021;-89
2022/03/11 10:36:46;;;;;;;21.48;12.48;;;;;;;;;;6165346;23;20021;-90
2022/03/11 10:39:16;;;;;;;26.63;13.88;;;;;;;;;;6190091;23;20041;-88
2022/03/11 10:41:43;;;;;;;23.10;14.70;;;;;;;;;;6139309;23;20021;-89
2022/03/11 10:44:09;;;;;;;22.42;13.43;;;;;;;;;;6139325;23;20040;-88
2022/03/11 10:46:38;;;;;;;19.38;12.48;;;;;;;;;;6189192;23;20036;-91
2022/03/11 10:49:06;;;;;;;18.67;12.98;;;;;;;;;;6163807;23;20532;-90
2022/03/11 10:51:33;;;;;;;24.98;14.30;;;;;;;;;;6190106;23;20113;-91
2022/03/11 10:54:00;;;;;;;25.65;15.27;;;;;;;;;;6163482;23;20017;-90
2022/03/11 10:56:29;;;;;;;21.42;13.00;;;;;;;;;;6163559;23;20068;-87
2022/03/11 10:58:55;;;;;;;27.40;15.07;;;;;;;;;;6163857;23;20021;-86
2022/03/11 11:01:45;;;;;;;30.10;14.93;;;;;;;;;;6139078;23;20092;-87
2022/03/11 11:04:17;;;;;;;23.20;13.73;;;;;;;;;;6074805;23;20097;-87
2022/03/11 11:06:44;;;;;;;25.73;14.80;;;;;;;;;;6074635;23;20101;-89
2022/03/11 11:09:12;;;;;;;23.50;14.30;;;;;;;;;;6074773;23;20022;-86
2022/03/11 11:11:44;;;;;;;21.05;12.82;;;;;;;;;;6074556;23;20025;-88
2022/03/11 11:14:11;;;;;;;21.55;13.90;;;;;;;;;;6074360;23;20023;-90
2022/03/11 11:16:52;;;;;;;22.33;14.63;;;;;;;;;;6098588;23;20018;-88
2022/03/11 11:19:19;;;;;;;21.08;12.55;;;;;;;;;;6074250;23;20488;-89
2022/03/11 11:21:48;;;;;;;26.08;14.48;;;;;;;;;;6098886;23;20098;-91
2022/03/11 11:24:18;;;;;;;22.95;13.32;;;;;;;;;;6098676;23;20109;-89
2022/03/11 11:26:48;;;;;;;25.63;13.93;;;;;;;;;;6073613;23;20022;-89
2022/03/11 11:29:24;;;;;;;23.10;13.43;;;;;;;;;;6098515;23;20019;-89
2022/03/11 11:31:51;;;;;;;25.75;12.77;;;;;;;;;;6098447;23;20478;-88
2022/03/11 11:34:31;;;;;;;23.23;14.77;;;;;;;;;;6073978;23;20022;-88
2022/03/11 11:36:58;;;;;;;24.92;13.70;;;;;;;;;;6098146;23;20014;-87
2022/03/11 11:39:26;;;;;;;22.55;12.20;;;;;;;;;;6075166;23;20341;-88
2022/03/11 11:41:53;;;;;;;22.00;13.60;;;;;;;;;;6172132;23;20013;-87
2022/03/11 11:44:20;;;;;;;21.13;13.55;;;;;;;;;;6189877;23;20024;-87
2022/03/11 11:47:06;;;;;;;23.65;13.10;;;;;;;;;;6138197;23;20028;-90
2022/03/11 11:49:46;;;;;;;20.38;12.93;;;;;;;;;;6163235;23;20025;-91
2022/03/11 11:52:25;;;;;;;30.67;13.90;;;;;;;;;;6163491;23;20048;-90
2022/03/11 11:54:51;;;;;;;24.58;12.55;;;;;;;;;;6138164;23;20044;-92
2022/03/11 11:57:18;;;;;;;21.45;13.57;;;;;;;;;;6139464;23;20040;-88
2022/03/11 11:59:46;;;;;;;18.88;13.13;;;;;;;;;;6162858;23;20021;-88
2022/03/11 12:02:25;;;;;;;21.50;12.95;;;;;;;;;;6137527;23;20067;-87
2022/03/11 12:04:51;;;;;;;22.25;13.32;;;;;;;;;;6189004;23;20024;-89
2022/03/11 12:07:18;;;;;;;22.45;14.00;;;;;;;;;;6162233;23;20041;-89
2022/03/11 12:09:54;;;;;;;17.80;12.15;;;;;;;;;;6137685;23;20013;-90
2022/03/11 12:12:30;;;;;;;22.92;13.57;;;;;;;;;;6137066;23;20013;-91
2022/03/11 12:15:06;;;;;;;23.35;13.13;;;;;;;;;;6188029;23;20017;-91
2022/03/11 12:17:51;;;;;;;20.63;13.88;;;;;;;;;;6161687;23;20466;-88
2022/03/11 12:20:32;;;;;;;24.05;13.68;;;;;;;;;;6162224;23;20021;-88
2022/03/11 12:23:14;;;;;;;22.63;13.68;;;;;;;;;;6137308;23;20347;-87
2022/03/11 12:25:42;;;;;;;27.23;14.02;;;;;;;;;;6137470;23;20028;-90
2022/03/11 12:28:18;;;;;;;17.30;12.68;;;;;;;;;;6137471;23;20069;-87
2022/03/11 12:30:44;;;;;;;18.40;13.27;;;;;;;;;;6137142;23;20017;-89
2022/03/11 12:33:18;;;;;;;21.88;12.77;;;;;;;;;;6162233;23;20027;-88
2022/03/11 12:35:45;;;;;;;30.05;12.73;;;;;;;;;;6162461;23;20019;-87
2022/03/11 12:38:12;;;;;;;20.17;12.95;;;;;;;;;;6136539;23;20013;-89
2022/03/11 12:40:39;;;;;;;20.33;13.38;;;;;;;;;;6138180;23;20462;-88
2022/03/11 12:43:06;;;;;;;19.77;14.35;;;;;;;;;;6162878;23;20122;-90
2022/03/11 12:45:38;;;;;;;20.23;12.25;;;;;;;;;;6138048;23;20447;-91
2022/03/11 12:48:05;;;;;;;23.20;12.45;;;;;;;;;;6138687;23;20025;-89
2022/03/11 12:50:31;;;;;;;21.20;12.85;;;;;;;;;;6189731;23;20044;-89
2022/03/11 12:52:58;;;;;;;18.20;12.10;;;;;;;;;;6164137;23;20024;-90
2022/03/11 12:55:30;;;;;;;17.92;12.50;;;;;;;;;;6163069;23;20021;-89
2022/03/11 12:57:57;;;;;;;23.27;13.20;;;;;;;;;;6163219;23;20021;-89
2022/03/11 13:00:24;;;;;;;20.25;13.20;;;;;;;;;;6137824;23;20027;-90
2022/03/11 13:02:50;;;;;;;16.10;12.27;;;;;;;;;;6161550;23;20025;-89
2022/03/11 13:05:20;;;;;;;15.43;11.27;;;;;;;;;;6161240;23;20036;-88
2022/03/11 13:07:46;;;;;;;19.25;11.85;;;;;;;;;;6137572;23;20071;-93
2022/03/11 13:10:24;;;;;;;18.13;12.40;;;;;;;;;;6161506;23;20343;-90
2022/03/11 13:12:51;;;;;;;19.30;12.68;;;;;;;;;;6136239;23;20451;-89
2022/03/11 13:15:25;;;;;;;20.60;12.52;;;;;;;;;;6187214;23;20076;-88
2022/03/11 13:17:53;;;;;;;19.23;12.73;;;;;;;;;;6136073;23;20067;-89
2022/03/11 13:20:45;;;;;;;21.27;12.27;;;;;;;;;;6161661;23;20032;-90
2022/03/11 13:23:11;;;;;;;17.00;10.90;;;;;;;;;;6128054;23;20083;-87
2022/03/11 13:25:39;;;;;;;23.35;12.73;;;;;;;;;;6187460;23;20013;-88
2022/03/11 13:28:05;;;;;;;25.85;11.38;;;;;;;;;;6186942;23;20025;-88
2022/03/11 13:30:36;;;;;;;16.02;11.50;;;;;;;;;;6188467;23;20305;-88
2022/03/11 13:33:16;;;;;;;15.32;11.35;;;;;;;;;;6137898;23;20387;-88
2022/03/11 13:35:43;;;;;;;19.85;12.50;;;;;;;;;;6136164;23;20021;-89
2022/03/11 13:38:09;;;;;;;16.67;10.90;;;;;;;;;;6188745;23;20017;-88
2022/03/11 13:40:36;;;;;;;21.35;11.70;;;;;;;;;;6162802;23;20529;-91
2022/03/11 13:43:03;;;;;;;20.55;11.35;;;;;;;;;;6161353;23;20017;-89
2022/03/11 13:45:30;;;;;;;17.60;11.10;;;;;;;;;;6137782;23;20020;-89
2022/03/11 13:48:02;;;;;;;17.23;11.23;;;;;;;;;;6161871;23;20052;-88
2022/03/11 13:50:28;;;;;;;15.93;11.52;;;;;;;;;;6161552;23;20017;-89
2022/03/11 13:52:57;;;;;;;26.45;12.25;;;;;;;;;;6138437;23;20447;-88
2022/03/11 13:55:31;;;;;;;18.05;12.07;;;;;;;;;;6187440;23;20071;-89
2022/03/11 13:58:12;;;;;;;16.90;11.63;;;;;;;;;;6186970;23;20017;-88
2022/03/11 14:00:38;;;;;;;24.33;11.90;;;;;;;;;;6160597;23;20454;-89
2022/03/11 14:03:17;;;;;;;20.35;12.27;;;;;;;;;;6160363;23;20017;-89
2022/03/11 14:05:44;;;;;;;14.52;9.77;;;;;;;;;;6186894;23;20068;-89
2022/03/11 14:08:12;;;;;;;19.15;10.88;;;;;;;;;;6161302;23;20029;-89
2022/03/11 14:10:45;;;;;;;14.73;10.85;;;;;;;;;;6161165;23;20021;-90
2022/03/11 14:13:13;;;;;;;15.60;11.00;;;;;;;;;;6161266;23;20021;-92
2022/03/11 14:15:47;;;;;;;18.70;10.25;;;;;;;;;;6160566;23;20070;-91
2022/03/11 14:18:14;;;;;;;19.70;10.38;;;;;;;;;;6136104;23;20079;-89
2022/03/11 14:20:41;;;;;;;18.45;12.02;;;;;;;;;;6136248;23;20021;-91
2022/03/11 14:23:08;;;;;;;24.50;11.60;;;;;;;;;;6137897;23;20024;-91
2022/03/11 14:25:37;;;;;;;15.30;10.88;;;;;;;;;;6164498;23;20017;-90
2022/03/11 14:28:07;;;;;;;16.88;11.13;;;;;;;;;;6163242;23;20024;-90
2022/03/11 14:30:33;;;;;;;26.58;10.70;;;;;;;;;;6163908;23;20021;-88
2022/03/11 14:33:00;;;;;;;15.20;10.50;;;;;;;;;;6164799;23;20023;-91
2022/03/11 14:35:26;;;;;;;18.65;10.10;;;;;;;;;;6166411;23;20032;-89
2022/03/11 14:37:55;;;;;;;20.48;9.38;;;;;;;;;;6140075;23;20009;-88
2022/03/11 14:40:29;;;;;;;23.70;11.18;;;;;;;;;;6139537;23;20068;-88
2022/03/11 14:42:56;;;;;;;15.32;10.70;;;;;;;;;;6140463;23;20443;-88
2022/03/11 14:45:22;;;;;;;15.82;10.07;;;;;;;;;;6135229;23;20029;-86
2022/03/11 14:47:48;;;;;;;11.93;8.55;;;;;;;;;;6160718;23;20084;-88
2022/03/11 14:50:18;;;;;;;20.25;11.07;;;;;;;;;;6135598;23;20053;-91
2022/03/11 14:52:53;;;;;;;13.95;9.88;;;;;;;;;;6136170;23;20376;-92
2022/03/11 14:55:22;;;;;;;17.02;10.23;;;;;;;;;;6161728;23;20069;-89
2022/03/11 14:57:56;;;;;;;16.95;9.80;;;;;;;;;;6138490;23;20037;-91
2022/03/11 15:01:12;;;;;;;13.63;9.57;;;;;;;;;;6161041;23;20017;-92
2022/03/11 15:03:59;;;;;;;14.32;8.75;;;;;;;;;;6130669;23;20061;-89
2022/03/11 15:06:31;;;;;;;15.13;9.35;;;;;;;;;;6122269;23;20209;-89
2022/03/11 15:09:03;;;;;;;13.02;9.48;;;;;;;;;;6166517;23;20032;-90
2022/03/11 15:11:44;;;;;;;11.43;8.65;;;;;;;;;;6217003;23;20021;-89
2022/03/11 15:14:12;;;;;;;17.95;10.43;;;;;;;;;;6167579;23;20039;-91
2022/03/11 15:16:39;;;;;;;17.90;9.95;;;;;;;;;;6218545;23;20386;-89
2022/03/11 15:19:05;;;;;;;15.05;9.32;;;;;;;;;;6167731;23;20454;-85
2022/03/11 15:21:31;;;;;;;14.35;8.98;;;;;;;;;;6166784;23;20058;-86
2022/03/11 15:23:57;;;;;;;13.30;9.13;;;;;;;;;;6167483;23;20113;-85
2022/03/11 15:26:23;;;;;;;14.43;8.32;;;;;;;;;;6166515;23;20016;-86